sensor_id;sensor_type;location;lat;lon;timestamp;temperature;humidity
61004;DHT22;46889;37.310;13.582;2022-08-05T00:01:21;27.00;99.90
61004;DHT22;46889;37.310;13.582;2022-08-05T00:03:48;27.00;99.90
61004;DHT22;46889;37.310;13.582;2022-08-05T00:06:15;26.90;99.90
61004;DHT22;46889;37.310;13.582;2022-08-05T00:08:42;26.90;99.90
61004;DHT22;46889;37.310;13.582;2022-08-05T00:11:08;26.90;99.90
61004;DHT22;46889;37.310;13.582;2022-08-05T00:13:36;27.00;99.90
61004;DHT22;46889;37.310;13.582;2022-08-05T00:16:03;27.00;99.90
61004;DHT22;46889;37.310;13.582;2022-08-05T00:18:30;27.10;99.90
61004;DHT22;46889;37.310;13.582;2022-08-05T00:20:56;27.10;99.90
61004;DHT22;46889;37.310;13.582;2022-08-05T00:23:23;27.00;99.90
61004;DHT22;46889;37.310;13.582;2022-08-05T00:25:49;27.00;99.90
61004;DHT22;46889;37.310;13.582;2022-08-05T00:28:16;26.90;99.90
61004;DHT22;46889;37.310;13.582;2022-08-05T00:30:42;26.90;99.90
61004;DHT22;46889;37.310;13.582;2022-08-05T00:33:08;26.80;99.90
61004;DHT22;46889;37.310;13.582;2022-08-05T00:35:34;26.80;99.90
61004;DHT22;46889;37.310;13.582;2022-08-05T00:38:01;26.70;99.90
61004;DHT22;46889;37.310;13.582;2022-08-05T00:40:27;26.70;99.90
61004;DHT22;46889;37.310;13.582;2022-08-05T00:42:54;26.70;99.90
61004;DHT22;46889;37.310;13.582;2022-08-05T00:45:20;26.60;99.90
61004;DHT22;46889;37.310;13.582;2022-08-05T00:47:46;26.60;99.90
61004;DHT22;46889;37.310;13.582;2022-08-05T00:50:12;26.60;99.90
61004;DHT22;46889;37.310;13.582;2022-08-05T00:52:38;26.60;99.90
61004;DHT22;46889;37.310;13.582;2022-08-05T00:55:05;26.60;99.90
61004;DHT22;46889;37.310;13.582;2022-08-05T00:57:31;26.60;99.90
61004;DHT22;46889;37.310;13.582;2022-08-05T00:59:57;26.70;99.90
61004;DHT22;46889;37.310;13.582;2022-08-05T01:02:23;26.60;99.90
61004;DHT22;46889;37.310;13.582;2022-08-05T01:04:49;26.60;99.90
61004;DHT22;46889;37.310;13.582;2022-08-05T01:07:15;26.70;99.90
61004;DHT22;46889;37.310;13.582;2022-08-05T01:09:41;26.60;99.90
61004;DHT22;46889;37.310;13.582;2022-08-05T01:12:13;26.60;99.90
61004;DHT22;46889;37.310;13.582;2022-08-05T01:17:12;26.60;99.90
61004;DHT22;46889;37.310;13.582;2022-08-05T01:19:50;26.50;99.90
61004;DHT22;46889;37.310;13.582;2022-08-05T01:25:34;26.50;99.90
61004;DHT22;46889;37.310;13.582;2022-08-05T01:28:25;26.50;99.90
61004;DHT22;46889;37.310;13.582;2022-08-05T01:31:08;26.50;99.90
61004;DHT22;46889;37.310;13.582;2022-08-05T01:36:28;26.50;99.90
61004;DHT22;46889;37.310;13.582;2022-08-05T01:38:55;26.50;99.90
61004;DHT22;46889;37.310;13.582;2022-08-05T01:41:23;26.50;99.90
61004;DHT22;46889;37.310;13.582;2022-08-05T01:43:50;26.50;99.90
61004;DHT22;46889;37.310;13.582;2022-08-05T01:46:18;26.60;99.80
61004;DHT22;46889;37.310;13.582;2022-08-05T01:48:45;26.60;99.70
61004;DHT22;46889;37.310;13.582;2022-08-05T01:51:12;26.60;99.70
61004;DHT22;46889;37.310;13.582;2022-08-05T01:53:40;26.60;99.70
61004;DHT22;46889;37.310;13.582;2022-08-05T01:56:08;26.60;99.70
61004;DHT22;46889;37.310;13.582;2022-08-05T01:58:37;26.50;99.70
61004;DHT22;46889;37.310;13.582;2022-08-05T02:01:04;26.50;99.60
61004;DHT22;46889;37.310;13.582;2022-08-05T02:03:37;26.40;99.70
61004;DHT22;46889;37.310;13.582;2022-08-05T02:06:06;26.40;99.60
61004;DHT22;46889;37.310;13.582;2022-08-05T02:08:33;26.40;99.40
61004;DHT22;46889;37.310;13.582;2022-08-05T02:11:13;26.40;99.40
61004;DHT22;46889;37.310;13.582;2022-08-05T02:14:07;26.50;99.20
61004;DHT22;46889;37.310;13.582;2022-08-05T02:16:54;26.50;99.10
61004;DHT22;46889;37.310;13.582;2022-08-05T02:19:43;26.50;99.00
61004;DHT22;46889;37.310;13.582;2022-08-05T02:22:20;26.50;98.90
61004;DHT22;46889;37.310;13.582;2022-08-05T02:24:52;26.50;99.30
61004;DHT22;46889;37.310;13.582;2022-08-05T02:27:20;26.50;99.10
61004;DHT22;46889;37.310;13.582;2022-08-05T02:29:48;26.50;99.20
61004;DHT22;46889;37.310;13.582;2022-08-05T02:32:19;26.50;99.20
61004;DHT22;46889;37.310;13.582;2022-08-05T02:34:46;26.50;98.90
61004;DHT22;46889;37.310;13.582;2022-08-05T02:37:13;26.60;98.80
61004;DHT22;46889;37.310;13.582;2022-08-05T02:39:40;26.50;98.70
61004;DHT22;46889;37.310;13.582;2022-08-05T02:42:07;26.50;98.60
61004;DHT22;46889;37.310;13.582;2022-08-05T02:44:37;26.60;98.30
61004;DHT22;46889;37.310;13.582;2022-08-05T02:47:06;26.70;98.00
61004;DHT22;46889;37.310;13.582;2022-08-05T02:49:37;26.70;97.70
61004;DHT22;46889;37.310;13.582;2022-08-05T02:52:12;26.80;97.60
61004;DHT22;46889;37.310;13.582;2022-08-05T02:54:39;26.80;97.50
61004;DHT22;46889;37.310;13.582;2022-08-05T02:57:09;26.90;97.30
61004;DHT22;46889;37.310;13.582;2022-08-05T02:59:36;26.90;97.00
61004;DHT22;46889;37.310;13.582;2022-08-05T03:02:03;26.90;96.90
61004;DHT22;46889;37.310;13.582;2022-08-05T03:04:30;26.90;96.80
61004;DHT22;46889;37.310;13.582;2022-08-05T03:06:57;27.00;96.60
61004;DHT22;46889;37.310;13.582;2022-08-05T03:09:24;27.00;96.40
61004;DHT22;46889;37.310;13.582;2022-08-05T03:11:50;26.90;96.10
61004;DHT22;46889;37.310;13.582;2022-08-05T03:14:15;27.00;96.20
61004;DHT22;46889;37.310;13.582;2022-08-05T03:16:41;26.90;96.10
61004;DHT22;46889;37.310;13.582;2022-08-05T03:19:08;26.90;96.10
61004;DHT22;46889;37.310;13.582;2022-08-05T03:21:34;26.90;95.90
61004;DHT22;46889;37.310;13.582;2022-08-05T03:24:01;26.90;95.80
61004;DHT22;46889;37.310;13.582;2022-08-05T03:26:28;27.00;95.70
61004;DHT22;46889;37.310;13.582;2022-08-05T03:28:54;26.90;95.60
61004;DHT22;46889;37.310;13.582;2022-08-05T03:31:20;26.90;95.50
61004;DHT22;46889;37.310;13.582;2022-08-05T03:33:47;26.90;95.70
61004;DHT22;46889;37.310;13.582;2022-08-05T03:36:13;26.90;95.70
61004;DHT22;46889;37.310;13.582;2022-08-05T03:38:40;26.90;95.60
61004;DHT22;46889;37.310;13.582;2022-08-05T03:41:06;26.90;95.70
61004;DHT22;46889;37.310;13.582;2022-08-05T03:43:33;26.90;95.50
61004;DHT22;46889;37.310;13.582;2022-08-05T03:45:59;26.70;95.80
61004;DHT22;46889;37.310;13.582;2022-08-05T03:48:26;26.80;95.70
61004;DHT22;46889;37.310;13.582;2022-08-05T03:56:43;26.80;95.20
61004;DHT22;46889;37.310;13.582;2022-08-05T03:59:33;26.80;95.20
61004;DHT22;46889;37.310;13.582;2022-08-05T04:02:00;26.80;95.10
61004;DHT22;46889;37.310;13.582;2022-08-05T04:04:28;26.80;95.20
61004;DHT22;46889;37.310;13.582;2022-08-05T04:06:57;26.70;95.20
61004;DHT22;46889;37.310;13.582;2022-08-05T04:09:24;26.70;95.30
61004;DHT22;46889;37.310;13.582;2022-08-05T04:11:51;26.60;95.50
61004;DHT22;46889;37.310;13.582;2022-08-05T04:14:17;26.60;95.60
61004;DHT22;46889;37.310;13.582;2022-08-05T04:16:44;26.60;95.60
61004;DHT22;46889;37.310;13.582;2022-08-05T04:19:10;26.60;95.70
61004;DHT22;46889;37.310;13.582;2022-08-05T04:21:37;26.60;95.60
61004;DHT22;46889;37.310;13.582;2022-08-05T04:24:04;26.60;95.60
61004;DHT22;46889;37.310;13.582;2022-08-05T04:26:30;26.60;95.70
61004;DHT22;46889;37.310;13.582;2022-08-05T04:28:56;26.50;95.70
61004;DHT22;46889;37.310;13.582;2022-08-05T04:31:22;26.50;95.60
61004;DHT22;46889;37.310;13.582;2022-08-05T04:33:48;26.50;95.30
61004;DHT22;46889;37.310;13.582;2022-08-05T04:36:14;26.50;95.40
61004;DHT22;46889;37.310;13.582;2022-08-05T04:38:44;26.50;95.30
61004;DHT22;46889;37.310;13.582;2022-08-05T04:41:10;26.50;95.30
61004;DHT22;46889;37.310;13.582;2022-08-05T04:43:37;26.50;95.20
61004;DHT22;46889;37.310;13.582;2022-08-05T04:46:03;26.50;95.40
61004;DHT22;46889;37.310;13.582;2022-08-05T04:48:29;26.50;95.40
61004;DHT22;46889;37.310;13.582;2022-08-05T04:50:55;26.50;95.30
61004;DHT22;46889;37.310;13.582;2022-08-05T04:53:21;26.50;95.50
61004;DHT22;46889;37.310;13.582;2022-08-05T04:55:47;26.40;95.50
61004;DHT22;46889;37.310;13.582;2022-08-05T04:58:15;26.50;95.20
61004;DHT22;46889;37.310;13.582;2022-08-05T05:00:42;26.50;95.10
61004;DHT22;46889;37.310;13.582;2022-08-05T05:03:09;26.50;95.30
61004;DHT22;46889;37.310;13.582;2022-08-05T05:05:36;26.60;95.20
61004;DHT22;46889;37.310;13.582;2022-08-05T05:08:05;26.60;95.20
61004;DHT22;46889;37.310;13.582;2022-08-05T05:10:43;26.60;95.30
61004;DHT22;46889;37.310;13.582;2022-08-05T05:13:12;26.70;95.40
61004;DHT22;46889;37.310;13.582;2022-08-05T05:15:39;26.70;95.20
61004;DHT22;46889;37.310;13.582;2022-08-05T05:18:05;26.80;95.10
61004;DHT22;46889;37.310;13.582;2022-08-05T05:20:32;26.90;95.10
61004;DHT22;46889;37.310;13.582;2022-08-05T05:23:00;27.40;94.80
61004;DHT22;46889;37.310;13.582;2022-08-05T05:25:29;28.50;93.80
61004;DHT22;46889;37.310;13.582;2022-08-05T05:27:55;29.70;92.30
61004;DHT22;46889;37.310;13.582;2022-08-05T05:30:22;30.80;91.40
61004;DHT22;46889;37.310;13.582;2022-08-05T05:32:48;31.80;90.10
61004;DHT22;46889;37.310;13.582;2022-08-05T05:35:14;32.60;87.80
61004;DHT22;46889;37.310;13.582;2022-08-05T05:37:55;33.80;86.00
61004;DHT22;46889;37.310;13.582;2022-08-05T05:40:23;35.30;81.80
61004;DHT22;46889;37.310;13.582;2022-08-05T05:42:50;36.80;78.60
61004;DHT22;46889;37.310;13.582;2022-08-05T05:45:17;38.20;74.90
61004;DHT22;46889;37.310;13.582;2022-08-05T05:47:43;39.60;71.90
61004;DHT22;46889;37.310;13.582;2022-08-05T05:50:13;40.50;68.90
61004;DHT22;46889;37.310;13.582;2022-08-05T05:52:39;41.40;66.90
61004;DHT22;46889;37.310;13.582;2022-08-05T05:55:10;42.60;65.50
61004;DHT22;46889;37.310;13.582;2022-08-05T05:57:38;43.60;62.80
61004;DHT22;46889;37.310;13.582;2022-08-05T06:00:07;44.40;60.60
61004;DHT22;46889;37.310;13.582;2022-08-05T06:02:34;44.90;58.70
61004;DHT22;46889;37.310;13.582;2022-08-05T06:05:00;44.50;58.60
61004;DHT22;46889;37.310;13.582;2022-08-05T06:07:27;44.70;57.60
61004;DHT22;46889;37.310;13.582;2022-08-05T06:09:53;43.50;58.20
61004;DHT22;46889;37.310;13.582;2022-08-05T06:12:19;43.20;58.70
61004;DHT22;46889;37.310;13.582;2022-08-05T06:14:45;42.20;59.50
61004;DHT22;46889;37.310;13.582;2022-08-05T06:17:11;42.30;59.80
61004;DHT22;46889;37.310;13.582;2022-08-05T06:19:37;42.70;58.60
61004;DHT22;46889;37.310;13.582;2022-08-05T06:22:04;42.80;58.00
61004;DHT22;46889;37.310;13.582;2022-08-05T06:24:31;42.40;58.80
61004;DHT22;46889;37.310;13.582;2022-08-05T06:26:57;43.10;57.90
61004;DHT22;46889;37.310;13.582;2022-08-05T06:29:24;43.60;56.50
61004;DHT22;46889;37.310;13.582;2022-08-05T06:31:50;43.10;56.90
61004;DHT22;46889;37.310;13.582;2022-08-05T06:34:17;42.80;56.60
61004;DHT22;46889;37.310;13.582;2022-08-05T06:36:43;43.20;57.50
61004;DHT22;46889;37.310;13.582;2022-08-05T06:39:09;44.40;56.10
61004;DHT22;46889;37.310;13.582;2022-08-05T06:41:36;45.40;54.90
61004;DHT22;46889;37.310;13.582;2022-08-05T06:44:02;46.30;54.30
61004;DHT22;46889;37.310;13.582;2022-08-05T06:46:28;47.30;53.60
61004;DHT22;46889;37.310;13.582;2022-08-05T06:48:54;47.90;52.80
61004;DHT22;46889;37.310;13.582;2022-08-05T06:51:21;48.40;51.80
61004;DHT22;46889;37.310;13.582;2022-08-05T06:53:47;48.70;51.70
61004;DHT22;46889;37.310;13.582;2022-08-05T06:56:13;49.30;51.10
61004;DHT22;46889;37.310;13.582;2022-08-05T06:58:39;49.50;50.50
61004;DHT22;46889;37.310;13.582;2022-08-05T07:01:05;48.90;48.40
61004;DHT22;46889;37.310;13.582;2022-08-05T07:03:32;48.10;49.20
61004;DHT22;46889;37.310;13.582;2022-08-05T07:05:58;48.10;49.20
61004;DHT22;46889;37.310;13.582;2022-08-05T07:08:26;47.60;49.40
61004;DHT22;46889;37.310;13.582;2022-08-05T07:10:53;47.60;49.00
61004;DHT22;46889;37.310;13.582;2022-08-05T07:13:23;47.00;49.70
61004;DHT22;46889;37.310;13.582;2022-08-05T07:16:08;47.00;49.50
61004;DHT22;46889;37.310;13.582;2022-08-05T07:18:52;47.00;49.70
61004;DHT22;46889;37.310;13.582;2022-08-05T07:21:18;46.60;49.30
61004;DHT22;46889;37.310;13.582;2022-08-05T07:23:44;46.40;49.90
61004;DHT22;46889;37.310;13.582;2022-08-05T07:26:10;46.50;49.20
61004;DHT22;46889;37.310;13.582;2022-08-05T07:28:36;46.20;50.10
61004;DHT22;46889;37.310;13.582;2022-08-05T07:31:02;45.60;50.00
61004;DHT22;46889;37.310;13.582;2022-08-05T07:33:29;44.80;49.80
61004;DHT22;46889;37.310;13.582;2022-08-05T07:35:55;44.10;50.60
61004;DHT22;46889;37.310;13.582;2022-08-05T07:38:21;43.50;51.00
61004;DHT22;46889;37.310;13.582;2022-08-05T07:40:47;42.50;51.70
61004;DHT22;46889;37.310;13.582;2022-08-05T07:43:13;42.20;52.80
61004;DHT22;46889;37.310;13.582;2022-08-05T07:45:41;41.80;52.30
61004;DHT22;46889;37.310;13.582;2022-08-05T07:48:09;41.30;52.90
61004;DHT22;46889;37.310;13.582;2022-08-05T07:50:35;40.40;52.70
61004;DHT22;46889;37.310;13.582;2022-08-05T07:53:01;39.70;53.40
61004;DHT22;46889;37.310;13.582;2022-08-05T07:55:27;39.90;53.60
61004;DHT22;46889;37.310;13.582;2022-08-05T07:57:54;39.50;52.90
61004;DHT22;46889;37.310;13.582;2022-08-05T08:00:20;39.40;53.60
61004;DHT22;46889;37.310;13.582;2022-08-05T08:02:46;39.60;53.20
61004;DHT22;46889;37.310;13.582;2022-08-05T08:05:12;39.70;56.80
61004;DHT22;46889;37.310;13.582;2022-08-05T08:07:38;39.50;59.80
61004;DHT22;46889;37.310;13.582;2022-08-05T08:10:05;39.60;60.50
61004;DHT22;46889;37.310;13.582;2022-08-05T08:12:31;39.60;61.00
61004;DHT22;46889;37.310;13.582;2022-08-05T08:14:57;39.20;62.30
61004;DHT22;46889;37.310;13.582;2022-08-05T08:17:23;38.40;64.30
61004;DHT22;46889;37.310;13.582;2022-08-05T08:19:49;38.00;66.30
61004;DHT22;46889;37.310;13.582;2022-08-05T08:22:16;37.80;66.90
61004;DHT22;46889;37.310;13.582;2022-08-05T08:24:42;37.30;68.30
61004;DHT22;46889;37.310;13.582;2022-08-05T08:27:08;37.00;70.00
61004;DHT22;46889;37.310;13.582;2022-08-05T08:29:34;37.30;69.20
61004;DHT22;46889;37.310;13.582;2022-08-05T08:32:00;37.60;69.60
61004;DHT22;46889;37.310;13.582;2022-08-05T08:34:26;37.90;68.70
61004;DHT22;46889;37.310;13.582;2022-08-05T08:36:52;38.30;69.20
61004;DHT22;46889;37.310;13.582;2022-08-05T08:39:20;38.40;67.60
61004;DHT22;46889;37.310;13.582;2022-08-05T08:41:48;38.60;66.70
61004;DHT22;46889;37.310;13.582;2022-08-05T08:44:17;38.20;66.00
61004;DHT22;46889;37.310;13.582;2022-08-05T08:46:44;37.90;68.00
61004;DHT22;46889;37.310;13.582;2022-08-05T08:49:15;38.00;69.20
61004;DHT22;46889;37.310;13.582;2022-08-05T08:51:47;37.70;70.30
61004;DHT22;46889;37.310;13.582;2022-08-05T08:54:14;37.50;70.70
61004;DHT22;46889;37.310;13.582;2022-08-05T08:56:40;37.10;72.90
61004;DHT22;46889;37.310;13.582;2022-08-05T08:59:07;37.20;73.20
61004;DHT22;46889;37.310;13.582;2022-08-05T09:01:33;37.00;73.20
61004;DHT22;46889;37.310;13.582;2022-08-05T09:03:59;37.00;75.70
61004;DHT22;46889;37.310;13.582;2022-08-05T09:06:27;37.00;76.50
61004;DHT22;46889;37.310;13.582;2022-08-05T09:08:54;37.00;76.40
61004;DHT22;46889;37.310;13.582;2022-08-05T09:11:20;36.50;76.60
61004;DHT22;46889;37.310;13.582;2022-08-05T09:13:46;36.40;76.30
61004;DHT22;46889;37.310;13.582;2022-08-05T09:16:13;36.70;74.60
61004;DHT22;46889;37.310;13.582;2022-08-05T09:18:39;36.80;74.20
61004;DHT22;46889;37.310;13.582;2022-08-05T09:21:09;36.80;72.80
61004;DHT22;46889;37.310;13.582;2022-08-05T09:23:35;36.60;73.80
61004;DHT22;46889;37.310;13.582;2022-08-05T09:26:13;36.70;73.60
61004;DHT22;46889;37.310;13.582;2022-08-05T09:28:46;36.60;73.20
61004;DHT22;46889;37.310;13.582;2022-08-05T09:31:14;36.50;73.20
61004;DHT22;46889;37.310;13.582;2022-08-05T09:33:55;36.40;72.10
61004;DHT22;46889;37.310;13.582;2022-08-05T09:36:24;36.30;72.60
61004;DHT22;46889;37.310;13.582;2022-08-05T09:39:05;36.20;73.10
61004;DHT22;46889;37.310;13.582;2022-08-05T09:41:31;36.20;76.00
61004;DHT22;46889;37.310;13.582;2022-08-05T09:43:58;36.10;76.50
61004;DHT22;46889;37.310;13.582;2022-08-05T09:46:32;36.10;76.20
61004;DHT22;46889;37.310;13.582;2022-08-05T09:49:01;36.20;73.00
61004;DHT22;46889;37.310;13.582;2022-08-05T09:51:37;36.40;70.90
61004;DHT22;46889;37.310;13.582;2022-08-05T09:54:04;36.50;73.70
61004;DHT22;46889;37.310;13.582;2022-08-05T09:56:35;36.70;71.90
61004;DHT22;46889;37.310;13.582;2022-08-05T09:59:04;36.50;77.00
61004;DHT22;46889;37.310;13.582;2022-08-05T10:01:32;36.50;76.50
61004;DHT22;46889;37.310;13.582;2022-08-05T10:04:03;36.50;74.00
61004;DHT22;46889;37.310;13.582;2022-08-05T10:06:30;36.30;78.10
61004;DHT22;46889;37.310;13.582;2022-08-05T10:11:40;36.20;76.50
61004;DHT22;46889;37.310;13.582;2022-08-05T10:14:24;36.30;78.00
61004;DHT22;46889;37.310;13.582;2022-08-05T10:16:51;36.10;78.50
61004;DHT22;46889;37.310;13.582;2022-08-05T10:19:22;36.10;78.50
61004;DHT22;46889;37.310;13.582;2022-08-05T10:21:49;36.10;80.50
61004;DHT22;46889;37.310;13.582;2022-08-05T10:24:19;35.90;79.40
61004;DHT22;46889;37.310;13.582;2022-08-05T10:26:48;35.80;79.20
61004;DHT22;46889;37.310;13.582;2022-08-05T10:29:14;35.90;81.30
61004;DHT22;46889;37.310;13.582;2022-08-05T10:31:40;35.80;81.80
61004;DHT22;46889;37.310;13.582;2022-08-05T10:34:08;35.70;84.50
61004;DHT22;46889;37.310;13.582;2022-08-05T10:36:35;35.70;84.40
61004;DHT22;46889;37.310;13.582;2022-08-05T10:39:07;35.60;85.50
61004;DHT22;46889;37.310;13.582;2022-08-05T10:41:45;35.70;81.90
61004;DHT22;46889;37.310;13.582;2022-08-05T10:44:15;35.80;79.40
61004;DHT22;46889;37.310;13.582;2022-08-05T10:47:11;35.80;74.80
61004;DHT22;46889;37.310;13.582;2022-08-05T10:52:45;36.00;81.90
61004;DHT22;46889;37.310;13.582;2022-08-05T10:55:25;36.10;79.90
61004;DHT22;46889;37.310;13.582;2022-08-05T10:58:10;36.20;79.50
61004;DHT22;46889;37.310;13.582;2022-08-05T11:00:36;36.30;79.50
61004;DHT22;46889;37.310;13.582;2022-08-05T11:05:29;36.20;76.80
61004;DHT22;46889;37.310;13.582;2022-08-05T11:07:57;36.10;75.10
61004;DHT22;46889;37.310;13.582;2022-08-05T11:10:24;36.10;77.60
61004;DHT22;46889;37.310;13.582;2022-08-05T11:12:51;36.30;77.40
61004;DHT22;46889;37.310;13.582;2022-08-05T11:15:29;36.40;74.00
61004;DHT22;46889;37.310;13.582;2022-08-05T11:18:07;36.40;71.70
61004;DHT22;46889;37.310;13.582;2022-08-05T11:20:40;36.40;70.90
61004;DHT22;46889;37.310;13.582;2022-08-05T11:26:04;36.60;69.30
61004;DHT22;46889;37.310;13.582;2022-08-05T11:33:35;36.60;68.20
61004;DHT22;46889;37.310;13.582;2022-08-05T11:36:06;36.60;67.50
61004;DHT22;46889;37.310;13.582;2022-08-05T11:41:23;36.70;72.40
61004;DHT22;46889;37.310;13.582;2022-08-05T11:43:59;36.80;77.20
61004;DHT22;46889;37.310;13.582;2022-08-05T11:46:32;36.50;79.40
61004;DHT22;46889;37.310;13.582;2022-08-05T11:48:59;36.50;75.80
61004;DHT22;46889;37.310;13.582;2022-08-05T11:51:27;36.60;74.80
61004;DHT22;46889;37.310;13.582;2022-08-05T11:53:54;36.60;71.60
61004;DHT22;46889;37.310;13.582;2022-08-05T11:56:21;36.70;72.60
61004;DHT22;46889;37.310;13.582;2022-08-05T11:58:48;36.60;74.50
61004;DHT22;46889;37.310;13.582;2022-08-05T12:01:18;36.80;82.50
61004;DHT22;46889;37.310;13.582;2022-08-05T12:03:53;36.70;84.50
61004;DHT22;46889;37.310;13.582;2022-08-05T12:06:22;36.80;84.50
61004;DHT22;46889;37.310;13.582;2022-08-05T12:08:50;36.80;84.20
61004;DHT22;46889;37.310;13.582;2022-08-05T12:11:21;36.90;81.90
61004;DHT22;46889;37.310;13.582;2022-08-05T12:14:05;37.00;81.20
61004;DHT22;46889;37.310;13.582;2022-08-05T12:16:33;37.20;74.00
61004;DHT22;46889;37.310;13.582;2022-08-05T12:18:59;37.20;75.20
61004;DHT22;46889;37.310;13.582;2022-08-05T12:21:31;37.00;78.60
61004;DHT22;46889;37.310;13.582;2022-08-05T12:24:08;36.70;80.10
61004;DHT22;46889;37.310;13.582;2022-08-05T12:26:47;36.50;80.60
61004;DHT22;46889;37.310;13.582;2022-08-05T12:29:17;36.50;77.80
61004;DHT22;46889;37.310;13.582;2022-08-05T12:31:49;36.50;80.30
61004;DHT22;46889;37.310;13.582;2022-08-05T12:34:17;36.60;80.80
61004;DHT22;46889;37.310;13.582;2022-08-05T12:36:44;36.60;80.10
61004;DHT22;46889;37.310;13.582;2022-08-05T12:39:11;36.50;76.20
61004;DHT22;46889;37.310;13.582;2022-08-05T12:41:39;36.70;77.80
61004;DHT22;46889;37.310;13.582;2022-08-05T12:44:10;36.60;77.80
61004;DHT22;46889;37.310;13.582;2022-08-05T12:46:38;36.40;78.20
61004;DHT22;46889;37.310;13.582;2022-08-05T12:49:12;36.30;78.70
61004;DHT22;46889;37.310;13.582;2022-08-05T12:51:54;36.40;81.00
61004;DHT22;46889;37.310;13.582;2022-08-05T12:54:23;36.50;82.20
61004;DHT22;46889;37.310;13.582;2022-08-05T12:56:54;36.60;84.20
61004;DHT22;46889;37.310;13.582;2022-08-05T12:59:31;36.60;85.40
61004;DHT22;46889;37.310;13.582;2022-08-05T13:02:04;36.70;85.70
61004;DHT22;46889;37.310;13.582;2022-08-05T13:04:32;36.10;79.90
61004;DHT22;46889;37.310;13.582;2022-08-05T13:07:01;36.10;78.60
61004;DHT22;46889;37.310;13.582;2022-08-05T13:09:28;35.90;75.60
61004;DHT22;46889;37.310;13.582;2022-08-05T13:12:08;35.70;76.10
61004;DHT22;46889;37.310;13.582;2022-08-05T13:14:42;35.60;77.60
61004;DHT22;46889;37.310;13.582;2022-08-05T13:17:16;35.40;78.00
61004;DHT22;46889;37.310;13.582;2022-08-05T13:19:58;35.40;78.40
61004;DHT22;46889;37.310;13.582;2022-08-05T13:22:25;35.60;80.80
61004;DHT22;46889;37.310;13.582;2022-08-05T13:24:51;35.80;84.00
61004;DHT22;46889;37.310;13.582;2022-08-05T13:27:38;35.70;81.00
61004;DHT22;46889;37.310;13.582;2022-08-05T13:30:07;35.80;76.60
61004;DHT22;46889;37.310;13.582;2022-08-05T13:32:33;35.80;77.80
61004;DHT22;46889;37.310;13.582;2022-08-05T13:34:59;35.80;78.20
61004;DHT22;46889;37.310;13.582;2022-08-05T13:37:26;35.60;79.00
61004;DHT22;46889;37.310;13.582;2022-08-05T13:39:52;35.60;79.80
61004;DHT22;46889;37.310;13.582;2022-08-05T13:42:20;35.70;81.60
61004;DHT22;46889;37.310;13.582;2022-08-05T13:44:46;35.80;84.50
61004;DHT22;46889;37.310;13.582;2022-08-05T13:47:13;35.80;76.90
61004;DHT22;46889;37.310;13.582;2022-08-05T13:49:39;35.70;76.70
61004;DHT22;46889;37.310;13.582;2022-08-05T13:52:13;35.70;74.60
61004;DHT22;46889;37.310;13.582;2022-08-05T13:54:40;35.60;74.40
61004;DHT22;46889;37.310;13.582;2022-08-05T13:57:07;35.50;74.90
61004;DHT22;46889;37.310;13.582;2022-08-05T13:59:34;35.80;73.40
61004;DHT22;46889;37.310;13.582;2022-08-05T14:02:01;35.90;72.60
61004;DHT22;46889;37.310;13.582;2022-08-05T14:04:29;36.00;72.10
61004;DHT22;46889;37.310;13.582;2022-08-05T14:07:14;36.00;73.10
61004;DHT22;46889;37.310;13.582;2022-08-05T14:09:40;35.90;72.80
61004;DHT22;46889;37.310;13.582;2022-08-05T14:12:06;35.70;73.80
61004;DHT22;46889;37.310;13.582;2022-08-05T14:14:33;35.80;73.70
61004;DHT22;46889;37.310;13.582;2022-08-05T14:16:59;35.90;71.90
61004;DHT22;46889;37.310;13.582;2022-08-05T14:19:26;36.00;71.60
61004;DHT22;46889;37.310;13.582;2022-08-05T14:21:52;35.90;72.60
61004;DHT22;46889;37.310;13.582;2022-08-05T14:24:20;36.00;72.50
61004;DHT22;46889;37.310;13.582;2022-08-05T14:26:46;35.90;72.30
61004;DHT22;46889;37.310;13.582;2022-08-05T14:29:12;36.00;71.40
61004;DHT22;46889;37.310;13.582;2022-08-05T14:31:38;36.10;70.80
61004;DHT22;46889;37.310;13.582;2022-08-05T14:34:04;36.10;70.30
61004;DHT22;46889;37.310;13.582;2022-08-05T14:36:30;36.10;71.10
61004;DHT22;46889;37.310;13.582;2022-08-05T14:38:56;36.00;72.30
61004;DHT22;46889;37.310;13.582;2022-08-05T14:41:22;36.00;72.70
61004;DHT22;46889;37.310;13.582;2022-08-05T14:43:49;36.00;72.50
61004;DHT22;46889;37.310;13.582;2022-08-05T14:46:16;36.00;71.80
61004;DHT22;46889;37.310;13.582;2022-08-05T14:48:42;36.00;71.00
61004;DHT22;46889;37.310;13.582;2022-08-05T14:51:08;35.90;71.00
61004;DHT22;46889;37.310;13.582;2022-08-05T14:53:34;36.00;71.50
61004;DHT22;46889;37.310;13.582;2022-08-05T14:56:00;36.00;72.20
61004;DHT22;46889;37.310;13.582;2022-08-05T14:58:26;36.00;73.10
61004;DHT22;46889;37.310;13.582;2022-08-05T15:00:52;36.00;73.80
61004;DHT22;46889;37.310;13.582;2022-08-05T15:03:18;35.90;74.40
61004;DHT22;46889;37.310;13.582;2022-08-05T15:05:44;35.90;76.50
61004;DHT22;46889;37.310;13.582;2022-08-05T15:08:10;35.70;75.60
61004;DHT22;46889;37.310;13.582;2022-08-05T15:10:36;35.60;76.00
61004;DHT22;46889;37.310;13.582;2022-08-05T15:13:02;35.50;77.10
61004;DHT22;46889;37.310;13.582;2022-08-05T15:15:29;35.50;78.40
61004;DHT22;46889;37.310;13.582;2022-08-05T15:17:56;35.50;77.40
61004;DHT22;46889;37.310;13.582;2022-08-05T15:20:22;35.50;77.30
61004;DHT22;46889;37.310;13.582;2022-08-05T15:22:49;35.50;77.10
61004;DHT22;46889;37.310;13.582;2022-08-05T15:25:15;35.50;76.60
61004;DHT22;46889;37.310;13.582;2022-08-05T15:27:41;35.30;77.60
61004;DHT22;46889;37.310;13.582;2022-08-05T15:30:08;35.10;78.50
61004;DHT22;46889;37.310;13.582;2022-08-05T15:32:35;35.10;78.70
61004;DHT22;46889;37.310;13.582;2022-08-05T15:35:02;35.00;77.90
61004;DHT22;46889;37.310;13.582;2022-08-05T15:37:28;35.10;79.10
61004;DHT22;46889;37.310;13.582;2022-08-05T15:39:54;35.00;80.40
61004;DHT22;46889;37.310;13.582;2022-08-05T15:42:22;35.00;80.60
61004;DHT22;46889;37.310;13.582;2022-08-05T15:44:49;35.10;80.40
61004;DHT22;46889;37.310;13.582;2022-08-05T15:47:15;35.10;81.20
61004;DHT22;46889;37.310;13.582;2022-08-05T15:49:41;35.10;81.20
61004;DHT22;46889;37.310;13.582;2022-08-05T15:52:07;35.00;82.10
61004;DHT22;46889;37.310;13.582;2022-08-05T15:54:33;35.00;81.90
61004;DHT22;46889;37.310;13.582;2022-08-05T15:56:59;35.10;82.20